Time;durP1;ratioP1;P1;durP2;ratioP2;P2;SDS_P1;SDS_P2;PMS_P1;PMS_P2;Temp;Humidity;BMP_temperature;BMP_pressure;BME280_temperature;BME280_humidity;BME280_pressure;Samples;Min_cycle;Max_cycle;Signal;HPM_P1;HPM_P2
2022/02/21 00:00:56;;;;;;;1.80;1.55;;;18.10;44.90;;;;;;5055122;28;20238;-82
2022/02/21 00:03:24;;;;;;;3.05;1.52;;;18.10;44.90;;;;;;5055082;28;20251;-82
2022/02/21 00:05:51;;;;;;;1.70;1.40;;;18.00;44.80;;;;;;5054944;28;20189;-83
2022/02/21 00:08:18;;;;;;;1.75;1.48;;;18.10;45.00;;;;;;5055225;28;20725;-82
2022/02/21 00:10:46;;;;;;;1.90;1.70;;;18.10;45.00;;;;;;5055173;28;20196;-82
2022/02/21 00:13:14;;;;;;;1.90;1.67;;;18.10;45.00;;;;;;5038724;28;20201;-83
2022/02/21 00:15:41;;;;;;;2.35;1.83;;;18.10;45.10;;;;;;5054821;28;20212;-82
2022/02/21 00:18:08;;;;;;;2.22;1.63;;;18.10;45.00;;;;;;5055050;28;20185;-82
2022/02/21 00:20:35;;;;;;;1.92;1.55;;;18.10;45.30;;;;;;5054935;28;20222;-82
2022/02/21 00:23:03;;;;;;;1.60;1.40;;;18.00;45.10;;;;;;5054767;28;20201;-82
2022/02/21 00:25:29;;;;;;;2.65;1.77;;;18.10;45.30;;;;;;5054853;28;20196;-82
2022/02/21 00:27:56;;;;;;;2.03;1.60;;;18.00;45.30;;;;;;5071948;28;20531;-82
2022/02/21 00:30:21;;;;;;;1.70;1.52;;;18.00;45.30;;;;;;5054672;28;20265;-82
2022/02/21 00:32:47;;;;;;;2.50;1.70;;;18.00;45.10;;;;;;5055875;28;20610;-83
2022/02/21 00:35:13;;;;;;;2.03;1.58;;;18.10;45.10;;;;;;5058718;28;20245;-82
2022/02/21 00:37:40;;;;;;;2.05;1.85;;;18.00;45.30;;;;;;5058652;28;20516;-81
2022/02/21 00:40:08;;;;;;;2.10;1.63;;;18.10;45.40;;;;;;5058150;28;20180;-83
2022/02/21 00:42:35;;;;;;;3.08;1.50;;;18.00;45.30;;;;;;5058287;28;20187;-81
2022/02/21 00:45:07;;;;;;;2.20;1.80;;;18.00;45.30;;;;;;5041248;28;20184;-81
2022/02/21 00:47:34;;;;;;;1.67;1.58;;;18.00;45.30;;;;;;5042665;28;20189;-81
2022/02/21 00:50:00;;;;;;;2.10;1.55;;;18.00;45.20;;;;;;5057604;28;20187;-82
2022/02/21 00:52:27;;;;;;;1.80;1.50;;;18.00;45.30;;;;;;5075450;28;20156;-81
2022/02/21 00:54:54;;;;;;;2.75;1.52;;;18.00;45.40;;;;;;5041333;28;20208;-82
2022/02/21 00:57:22;;;;;;;1.50;1.40;;;18.00;45.40;;;;;;5057859;28;20634;-81
2022/02/21 00:59:49;;;;;;;1.90;1.50;;;17.90;45.50;;;;;;5057707;28;20188;-82
2022/02/21 01:02:17;;;;;;;2.97;1.67;;;18.00;45.70;;;;;;5057687;28;20634;-82
2022/02/21 01:04:44;;;;;;;4.32;1.88;;;17.90;45.80;;;;;;5057952;28;20192;-82
2022/02/21 01:07:12;;;;;;;2.88;1.73;;;17.90;45.80;;;;;;5057746;28;20211;-82
2022/02/21 01:09:39;;;;;;;1.90;1.67;;;17.90;45.80;;;;;;5041216;28;20177;-82
2022/02/21 01:12:07;;;;;;;3.15;1.60;;;17.90;46.00;;;;;;5057831;28;20180;-82
2022/02/21 01:14:36;;;;;;;2.80;1.73;;;17.90;45.80;;;;;;5057771;28;20304;-81
2022/02/21 01:17:03;;;;;;;2.85;1.60;;;18.00;46.00;;;;;;5059023;28;20180;-81
2022/02/21 01:19:28;;;;;;;1.65;1.45;;;17.80;45.90;;;;;;5058888;28;20172;-82
2022/02/21 01:21:54;;;;;;;2.08;1.55;;;17.90;46.10;;;;;;5060756;28;20183;-82
2022/02/21 01:24:20;;;;;;;2.85;1.60;;;17.90;46.20;;;;;;5081889;28;20157;-81
2022/02/21 01:26:45;;;;;;;3.05;1.80;;;17.90;46.00;;;;;;5082626;28;20615;-82
2022/02/21 01:29:11;;;;;;;3.78;1.70;;;17.80;46.20;;;;;;5066721;28;20180;-82
2022/02/21 01:31:37;;;;;;;1.85;1.40;;;17.80;46.20;;;;;;5101122;28;20569;-82
2022/02/21 01:34:03;;;;;;;1.40;1.30;;;17.80;46.20;;;;;;5062764;28;20244;-81
2022/02/21 01:36:34;;;;;;;1.67;1.40;;;17.80;46.20;;;;;;5061331;28;20184;-81
2022/02/21 01:39:01;;;;;;;2.45;1.80;;;17.80;46.20;;;;;;5062101;28;20181;-82
2022/02/21 01:41:27;;;;;;;2.55;1.40;;;17.80;46.30;;;;;;5045620;28;20184;-81
2022/02/21 01:44:03;;;;;;;1.67;1.50;;;17.80;46.20;;;;;;5059107;28;20157;-81
2022/02/21 01:46:28;;;;;;;1.65;1.55;;;17.90;46.40;;;;;;5058435;28;20165;-81
2022/02/21 01:48:55;;;;;;;1.60;1.40;;;17.80;46.40;;;;;;5058213;28;20235;-81
2022/02/21 01:51:21;;;;;;;2.85;1.50;;;17.80;46.40;;;;;;5056972;28;20181;-81
2022/02/21 01:53:46;;;;;;;1.67;1.58;;;17.80;46.40;;;;;;5074690;28;20159;-82
2022/02/21 01:56:12;;;;;;;2.50;1.50;;;17.80;46.50;;;;;;5058514;28;20157;-81
2022/02/21 01:58:38;;;;;;;1.65;1.35;;;17.80;46.60;;;;;;5060229;28;20152;-81
2022/02/21 02:01:03;;;;;;;2.67;1.73;;;17.80;46.60;;;;;;5061972;28;20165;-81
2022/02/21 02:03:29;;;;;;;1.98;1.60;;;17.80;46.60;;;;;;5061549;28;20160;-82
2022/02/21 02:05:55;;;;;;;1.42;1.30;;;17.80;46.60;;;;;;5061444;28;20183;-81
2022/02/21 02:08:20;;;;;;;1.88;1.50;;;17.80;46.50;;;;;;5061893;28;20161;-81
2022/02/21 02:10:46;;;;;;;1.83;1.58;;;17.80;46.70;;;;;;5061252;28;20179;-81
2022/02/21 02:13:11;;;;;;;2.53;1.88;;;17.80;46.60;;;;;;5061446;28;20168;-82
2022/02/21 02:15:37;;;;;;;2.90;1.77;;;17.80;46.70;;;;;;5078153;28;20235;-82
2022/02/21 02:18:03;;;;;;;2.00;1.33;;;17.70;46.70;;;;;;5077720;28;20678;-82
2022/02/21 02:20:30;;;;;;;2.13;1.58;;;17.70;46.60;;;;;;5061142;28;20156;-81
2022/02/21 02:22:57;;;;;;;1.88;1.45;;;17.70;46.60;;;;;;5060307;28;20251;-81
2022/02/21 02:25:24;;;;;;;1.90;1.63;;;17.70;46.80;;;;;;5060377;28;20234;-82
2022/02/21 02:27:52;;;;;;;1.55;1.40;;;17.70;46.80;;;;;;5060593;28;20196;-81
2022/02/21 02:30:17;;;;;;;1.60;1.38;;;17.70;46.90;;;;;;5043546;28;20223;-81
2022/02/21 02:32:48;;;;;;;1.60;1.48;;;17.80;46.80;;;;;;5060975;28;20156;-81
2022/02/21 02:35:14;;;;;;;1.60;1.50;;;17.70;46.80;;;;;;5062565;28;20196;-82
2022/02/21 02:37:40;;;;;;;1.98;1.45;;;17.70;46.90;;;;;;5060766;28;20160;-81
2022/02/21 02:40:06;;;;;;;1.75;1.40;;;17.70;46.80;;;;;;5077791;28;20164;-81
2022/02/21 02:42:31;;;;;;;2.05;1.60;;;17.70;46.90;;;;;;5078004;28;20212;-81
2022/02/21 02:44:57;;;;;;;1.90;1.60;;;17.70;46.90;;;;;;5060808;28;20244;-82
2022/02/21 02:47:23;;;;;;;2.17;1.50;;;17.80;47.00;;;;;;5060904;28;20156;-81
2022/02/21 02:49:48;;;;;;;2.47;1.30;;;17.70;47.00;;;;;;5060621;28;20161;-82
2022/02/21 02:52:14;;;;;;;2.58;1.60;;;17.70;47.00;;;;;;5077352;28;20160;-81
2022/02/21 02:54:40;;;;;;;1.77;1.40;;;17.60;47.00;;;;;;5060557;28;20185;-82
2022/02/21 02:57:05;;;;;;;2.65;1.30;;;17.70;47.00;;;;;;5060870;28;20157;-82
2022/02/21 02:59:35;;;;;;;2.03;1.65;;;17.60;47.00;;;;;;5060617;28;20168;-82
2022/02/21 03:02:01;;;;;;;1.73;1.40;;;17.60;47.10;;;;;;5043215;28;20263;-82
2022/02/21 03:04:28;;;;;;;1.60;1.50;;;17.60;47.20;;;;;;5060224;28;20302;-83
2022/02/21 03:06:53;;;;;;;1.95;1.60;;;17.70;47.20;;;;;;5076962;28;20165;-83
2022/02/21 03:09:20;;;;;;;1.77;1.42;;;17.60;47.20;;;;;;5060459;28;20172;-83
2022/02/21 03:11:45;;;;;;;1.52;1.42;;;17.60;47.30;;;;;;5060044;28;20167;-82
2022/02/21 03:14:11;;;;;;;1.75;1.40;;;17.60;47.30;;;;;;5060313;28;20184;-82
2022/02/21 03:16:38;;;;;;;2.38;1.52;;;17.60;47.30;;;;;;5076711;28;20206;-82
2022/02/21 03:19:03;;;;;;;1.85;1.60;;;17.60;47.30;;;;;;5076690;28;20176;-82
2022/02/21 03:21:29;;;;;;;1.83;1.60;;;17.60;47.30;;;;;;5093556;28;20209;-83
2022/02/21 03:23:55;;;;;;;1.73;1.55;;;17.60;47.20;;;;;;5076563;28;20183;-82
2022/02/21 03:26:21;;;;;;;1.80;1.48;;;17.60;47.30;;;;;;5095011;28;20164;-82
2022/02/21 03:28:47;;;;;;;1.65;1.55;;;17.70;47.40;;;;;;5076886;28;20156;-83
2022/02/21 03:31:13;;;;;;;2.45;1.65;;;17.60;47.40;;;;;;5076475;28;20164;-83
2022/02/21 03:33:39;;;;;;;1.42;1.30;;;17.60;47.40;;;;;;5056542;28;20675;-82
2022/02/21 03:36:04;;;;;;;1.50;1.40;;;17.60;47.40;;;;;;5089744;28;20169;-82
2022/02/21 03:38:30;;;;;;;2.50;1.48;;;17.60;47.50;;;;;;5056448;28;20165;-82
2022/02/21 03:40:56;;;;;;;2.03;1.45;;;17.60;47.50;;;;;;5072847;28;20240;-82
2022/02/21 03:43:21;;;;;;;1.52;1.40;;;17.60;47.40;;;;;;5056241;28;20663;-83
2022/02/21 03:45:47;;;;;;;1.75;1.50;;;17.60;47.40;;;;;;5072981;28;20168;-82
2022/02/21 03:48:13;;;;;;;1.73;1.27;;;17.60;47.60;;;;;;5056169;28;20214;-82
2022/02/21 03:50:39;;;;;;;1.30;1.20;;;17.60;47.60;;;;;;5056405;28;20223;-82
2022/02/21 03:53:05;;;;;;;1.83;1.55;;;17.60;47.50;;;;;;5072788;28;20197;-82
2022/02/21 03:55:30;;;;;;;2.03;1.50;;;17.60;47.60;;;;;;5072512;28;20193;-83
2022/02/21 03:57:56;;;;;;;2.13;1.35;;;17.60;47.60;;;;;;5055941;28;20177;-83
2022/02/21 04:00:21;;;;;;;3.58;1.50;;;17.60;47.60;;;;;;5055803;28;20154;-82
2022/02/21 04:02:47;;;;;;;1.67;1.38;;;17.60;47.60;;;;;;5055963;28;20211;-83
2022/02/21 04:05:14;;;;;;;1.80;1.50;;;17.60;47.60;;;;;;5073581;28;20157;-82
2022/02/21 04:07:42;;;;;;;1.42;1.33;;;17.50;47.60;;;;;;5072495;28;20157;-82
2022/02/21 04:10:11;;;;;;;1.58;1.27;;;17.50;47.60;;;;;;5072947;28;20257;-83
2022/02/21 04:12:40;;;;;;;1.45;1.17;;;17.60;47.60;;;;;;5055084;28;20263;-82
2022/02/21 04:15:08;;;;;;;1.58;1.42;;;17.50;47.60;;;;;;5054740;28;20679;-82
2022/02/21 04:17:45;;;;;;;2.38;1.40;;;17.50;47.70;;;;;;5055153;28;20545;-83
2022/02/21 04:20:12;;;;;;;2.83;1.63;;;17.60;47.90;;;;;;5072196;28;20185;-82
2022/02/21 04:22:38;;;;;;;1.50;1.40;;;17.50;47.70;;;;;;5055741;28;20180;-83
2022/02/21 04:25:05;;;;;;;1.50;1.40;;;17.50;47.70;;;;;;5055534;28;20169;-82
2022/02/21 04:27:46;;;;;;;2.00;1.50;;;17.50;47.70;;;;;;5072374;28;20200;-82
2022/02/21 04:30:15;;;;;;;1.80;1.40;;;17.60;47.80;;;;;;5056566;28;20153;-82
2022/02/21 04:32:46;;;;;;;1.65;1.27;;;17.50;47.70;;;;;;5054898;28;20185;-83
2022/02/21 04:35:13;;;;;;;1.30;1.20;;;17.50;47.80;;;;;;5018996;28;20226;-82
2022/02/21 04:37:40;;;;;;;1.90;1.50;;;17.50;47.90;;;;;;5018432;28;20248;-82
2022/02/21 04:40:09;;;;;;;1.50;1.17;;;17.50;47.80;;;;;;5018206;28;20188;-84
2022/02/21 04:42:36;;;;;;;2.25;1.25;;;17.50;47.90;;;;;;5018625;28;20601;-82
2022/02/21 04:45:03;;;;;;;1.75;1.30;;;17.50;47.80;;;;;;5018018;28;20181;-82
2022/02/21 04:47:30;;;;;;;1.30;1.20;;;17.50;47.90;;;;;;5034434;28;20192;-82
2022/02/21 04:49:55;;;;;;;1.75;1.40;;;17.50;47.90;;;;;;5017968;28;20269;-82
2022/02/21 04:52:21;;;;;;;1.90;1.33;;;17.50;48.00;;;;;;5035305;28;20193;-83
2022/02/21 04:54:47;;;;;;;1.95;1.40;;;17.50;47.90;;;;;;5035443;28;20222;-82
2022/02/21 04:57:13;;;;;;;2.45;1.40;;;17.50;47.90;;;;;;5051871;28;20283;-82
2022/02/21 04:59:38;;;;;;;2.22;1.35;;;17.50;47.90;;;;;;5052287;28;20177;-83
2022/02/21 05:02:04;;;;;;;2.28;1.40;;;17.50;47.90;;;;;;5051685;28;20177;-83
2022/02/21 05:04:32;;;;;;;1.35;1.25;;;17.50;48.00;;;;;;5051711;28;20193;-82
2022/02/21 05:06:59;;;;;;;2.47;1.48;;;17.50;48.00;;;;;;5017982;28;20636;-83
2022/02/21 05:09:25;;;;;;;1.58;1.38;;;17.50;48.00;;;;;;5034446;28;20264;-83
2022/02/21 05:11:51;;;;;;;1.42;1.33;;;17.50;48.10;;;;;;5051582;28;20166;-83
2022/02/21 05:14:18;;;;;;;1.80;1.42;;;17.50;48.10;;;;;;5051773;28;20193;-82
2022/02/21 05:16:46;;;;;;;1.40;1.25;;;17.50;48.00;;;;;;5017857;28;20287;-82
2022/02/21 05:19:13;;;;;;;1.58;1.40;;;17.50;48.00;;;;;;5018021;28;20563;-83
2022/02/21 05:21:39;;;;;;;1.20;1.10;;;17.60;48.10;;;;;;5034642;28;20174;-82
2022/02/21 05:24:07;;;;;;;1.63;1.50;;;17.50;48.00;;;;;;5051817;28;20623;-81
2022/02/21 05:26:32;;;;;;;1.30;1.20;;;17.50;47.70;;;;;;5046861;28;20198;-82
2022/02/21 05:28:59;;;;;;;1.60;1.20;;;17.60;47.30;;;;;;5071367;28;20154;-82
2022/02/21 05:31:25;;;;;;;1.13;1.02;;;17.70;46.70;;;;;;5053670;28;20287;-82
2022/02/21 05:33:51;;;;;;;1.10;0.80;;;17.70;46.70;;;;;;5082898;28;20722;-82
2022/02/21 05:36:21;;;;;;;1.15;1.00;;;17.80;46.40;;;;;;5093438;28;20171;-82
2022/02/21 05:38:49;;;;;;;1.63;1.10;;;17.80;46.60;;;;;;5058842;28;20188;-82
2022/02/21 05:41:18;;;;;;;1.20;1.10;;;17.80;46.70;;;;;;5042038;28;20200;-82
2022/02/21 05:43:46;;;;;;;1.45;1.27;;;17.80;46.60;;;;;;5058588;28;20203;-82
2022/02/21 05:46:12;;;;;;;1.33;1.10;;;17.90;46.20;;;;;;5058630;28;20184;-83
2022/02/21 05:48:38;;;;;;;1.52;1.20;;;17.90;46.60;;;;;;5077722;28;20191;-82
2022/02/21 05:51:03;;;;;;;1.52;1.30;;;17.90;46.20;;;;;;5061326;28;20169;-82
2022/02/21 05:53:29;;;;;;;1.52;1.27;;;17.90;46.30;;;;;;5078496;28;20213;-82
2022/02/21 05:55:55;;;;;;;0.98;0.93;;;18.00;46.20;;;;;;5078208;28;20234;-82
2022/02/21 05:58:20;;;;;;;1.48;1.10;;;18.00;46.10;;;;;;5078285;28;20161;-82
2022/02/21 06:00:49;;;;;;;1.20;1.10;;;18.00;46.00;;;;;;5078814;28;20191;-82
2022/02/21 06:03:17;;;;;;;2.30;1.00;;;18.00;46.00;;;;;;5077696;28;20184;-82
2022/02/21 06:05:46;;;;;;;1.42;1.00;;;18.00;46.00;;;;;;5060729;28;20185;-82
2022/02/21 06:08:13;;;;;;;0.68;0.68;;;18.00;45.60;;;;;;5061568;28;20537;-82
2022/02/21 06:10:39;;;;;;;1.08;0.98;;;18.10;45.50;;;;;;5060526;28;20191;-82
2022/02/21 06:13:05;;;;;;;1.27;0.93;;;18.10;45.60;;;;;;5061547;28;20172;-82
2022/02/21 06:15:31;;;;;;;1.10;1.00;;;18.10;45.50;;;;;;5077817;28;20275;-81
2022/02/21 06:17:58;;;;;;;1.23;1.13;;;18.20;45.60;;;;;;5061200;28;20168;-82
2022/02/21 06:20:25;;;;;;;2.67;1.05;;;18.10;45.40;;;;;;5078209;28;20149;-82
2022/02/21 06:22:50;;;;;;;1.08;0.90;;;18.10;45.40;;;;;;5061536;28;20616;-82
2022/02/21 06:25:16;;;;;;;1.33;1.10;;;18.10;45.30;;;;;;5057575;28;20169;-82
2022/02/21 06:27:42;;;;;;;1.13;0.80;;;18.10;45.30;;;;;;5074714;28;20165;-83
2022/02/21 06:30:10;;;;;;;2.45;1.20;;;18.10;45.30;;;;;;5058179;28;20165;-81
2022/02/21 06:32:35;;;;;;;1.10;0.82;;;18.10;45.20;;;;;;5057799;28;20179;-82
2022/02/21 06:35:01;;;;;;;0.88;0.80;;;18.10;45.40;;;;;;5057872;28;20315;-82
2022/02/21 06:37:27;;;;;;;0.90;0.80;;;18.10;45.10;;;;;;5058276;28;20203;-82
2022/02/21 06:39:53;;;;;;;1.08;0.98;;;18.10;45.30;;;;;;5058447;28;20173;-81
2022/02/21 06:42:18;;;;;;;1.33;0.82;;;18.20;45.00;;;;;;5057880;28;20165;-81
2022/02/21 06:44:44;;;;;;;1.00;0.90;;;18.20;45.00;;;;;;5057304;28;20169;-82
2022/02/21 06:47:09;;;;;;;1.00;0.90;;;18.20;44.90;;;;;;5056499;28;20193;-82
2022/02/21 06:49:35;;;;;;;1.00;1.00;;;18.20;45.00;;;;;;5055841;28;20154;-82
2022/02/21 06:52:01;;;;;;;1.02;0.73;;;18.20;45.70;;;;;;5072417;28;20169;-82
2022/02/21 06:54:26;;;;;;;1.08;0.90;;;18.10;44.80;;;;;;5073118;28;20192;-82
2022/02/21 06:56:52;;;;;;;1.02;0.90;;;18.20;44.80;;;;;;5056772;28;20154;-83
2022/02/21 06:59:18;;;;;;;0.77;0.77;;;18.20;44.60;;;;;;5075107;28;20158;-81
2022/02/21 07:01:43;;;;;;;1.40;0.90;;;18.30;44.80;;;;;;5074201;28;20157;-81
2022/02/21 07:04:09;;;;;;;1.13;0.90;;;18.20;44.70;;;;;;5057901;28;20195;-81
2022/02/21 07:06:37;;;;;;;1.02;0.82;;;18.30;44.60;;;;;;5074636;28;20177;-81
2022/02/21 07:09:03;;;;;;;1.08;0.88;;;18.30;44.70;;;;;;5039139;28;20288;-83
2022/02/21 07:11:28;;;;;;;1.23;0.90;;;18.30;44.60;;;;;;5077326;28;20192;-83
2022/02/21 07:13:55;;;;;;;1.15;0.98;;;18.20;44.60;;;;;;5077840;28;20161;-83
2022/02/21 07:16:21;;;;;;;1.00;0.82;;;18.30;45.50;;;;;;5058688;28;20223;-83
2022/02/21 07:18:47;;;;;;;1.83;0.98;;;18.40;44.50;;;;;;5078313;28;20160;-87
2022/02/21 07:21:13;;;;;;;0.77;0.77;;;18.30;44.50;;;;;;5094627;28;20218;-82
2022/02/21 07:23:43;;;;;;;1.15;0.80;;;18.40;44.70;;;;;;5096119;28;20161;-85
2022/02/21 07:26:08;;;;;;;1.02;0.70;;;18.40;44.30;;;;;;5044002;28;20181;-84
2022/02/21 07:28:34;;;;;;;0.82;0.70;;;18.40;44.10;;;;;;5094163;28;20497;-86
2022/02/21 07:31:00;;;;;;;1.58;1.17;;;18.40;44.20;;;;;;5078056;28;20254;-85
2022/02/21 07:33:27;;;;;;;0.80;0.70;;;18.40;44.40;;;;;;5060422;28;20216;-85
2022/02/21 07:35:56;;;;;;;1.00;0.90;;;18.50;44.30;;;;;;5078905;28;20184;-85
2022/02/21 07:38:23;;;;;;;1.25;0.80;;;18.60;44.20;;;;;;5073813;28;20165;-83
2022/02/21 07:40:49;;;;;;;0.85;0.85;;;18.50;44.10;;;;;;5099014;28;20145;-84
2022/02/21 07:43:17;;;;;;;0.60;0.60;;;18.50;44.10;;;;;;5082299;28;20175;-85
2022/02/21 07:45:43;;;;;;;1.00;0.80;;;18.50;44.10;;;;;;5083979;28;20157;-86
2022/02/21 07:48:11;;;;;;;1.17;0.98;;;18.50;44.10;;;;;;5066116;28;20183;-84
2022/02/21 07:50:47;;;;;;;1.02;0.90;;;18.50;44.10;;;;;;5067915;28;20153;-86
2022/02/21 07:53:12;;;;;;;0.85;0.75;;;18.50;44.10;;;;;;5068373;28;20173;-85
2022/02/21 07:55:38;;;;;;;0.88;0.80;;;18.40;44.10;;;;;;5084594;28;20197;-84
2022/02/21 07:58:04;;;;;;;0.85;0.80;;;18.50;44.30;;;;;;5059489;28;20205;-81
2022/02/21 08:00:30;;;;;;;0.73;0.73;;;18.50;44.40;;;;;;5061932;28;20185;-82
2022/02/21 08:03:00;;;;;;;0.90;0.80;;;18.60;44.20;;;;;;5084906;28;20567;-83
2022/02/21 08:05:27;;;;;;;0.60;0.60;;;18.60;44.20;;;;;;5080822;28;20214;-83
2022/02/21 08:07:52;;;;;;;1.38;0.85;;;18.60;44.10;;;;;;5095306;28;20187;-83
2022/02/21 08:10:18;;;;;;;0.57;0.57;;;18.60;44.10;;;;;;5093910;28;20531;-82
2022/02/21 08:12:44;;;;;;;1.05;0.60;;;18.60;44.10;;;;;;5095768;28;20165;-83
2022/02/21 08:15:09;;;;;;;2.00;0.77;;;18.60;44.50;;;;;;5079024;28;20189;-82
2022/02/21 08:17:39;;;;;;;1.00;0.70;;;18.60;44.40;;;;;;5079961;28;20181;-83
2022/02/21 08:20:06;;;;;;;2.95;0.68;;;18.60;44.70;;;;;;5062997;28;20164;-82
2022/02/21 08:22:59;;;;;;;1.55;0.70;;;18.60;44.50;;;;;;5087452;28;20252;-82
2022/02/21 08:25:24;;;;;;;2.08;0.70;;;18.60;44.30;;;;;;5103196;28;20203;-82
2022/02/21 08:28:08;;;;;;;1.20;0.90;;;18.60;44.60;;;;;;5090959;28;20149;-82
2022/02/21 08:30:34;;;;;;;2.20;0.70;;;18.60;45.00;;;;;;5116424;23;20240;-81
2022/02/21 08:33:05;;;;;;;2.67;0.63;;;18.60;45.10;;;;;;5042155;28;20208;-82
2022/02/21 08:35:34;;;;;;;0.63;0.50;;;18.60;45.00;;;;;;5041632;28;20263;-82
2022/02/21 08:38:04;;;;;;;3.72;0.75;;;18.70;44.50;;;;;;5057466;28;20188;-82
2022/02/21 08:40:33;;;;;;;1.35;0.50;;;18.70;44.70;;;;;;5057273;28;20220;-82
2022/02/21 08:43:02;;;;;;;3.75;0.70;;;18.70;44.30;;;;;;5024567;28;20253;-80
2022/02/21 08:45:30;;;;;;;1.27;0.70;;;18.70;44.20;;;;;;5040490;28;20218;-82
2022/02/21 08:47:56;;;;;;;1.27;0.80;;;18.80;44.30;;;;;;5055877;28;20260;-81
2022/02/21 08:50:24;;;;;;;1.42;0.40;;;18.80;44.30;;;;;;5073809;28;20181;-82
2022/02/21 08:52:52;;;;;;;3.05;0.75;;;18.70;44.20;;;;;;5039624;28;20190;-81
2022/02/21 08:55:20;;;;;;;3.50;0.60;;;18.80;44.60;;;;;;5040634;28;20252;-82
2022/02/21 08:57:50;;;;;;;2.95;0.75;;;18.80;44.50;;;;;;5056602;28;20530;-82
2022/02/21 09:00:18;;;;;;;1.70;0.70;;;18.80;44.70;;;;;;5057479;28;20243;-82
2022/02/21 09:02:47;;;;;;;1.77;0.80;;;18.90;44.90;;;;;;5040399;28;20181;-83
2022/02/21 09:05:14;;;;;;;1.55;0.68;;;18.90;44.80;;;;;;5057323;28;20603;-83
2022/02/21 09:07:44;;;;;;;2.10;0.70;;;18.90;44.60;;;;;;5042571;28;20223;-81
2022/02/21 09:10:10;;;;;;;1.95;0.60;;;19.00;44.50;;;;;;5061646;28;20256;-82
2022/02/21 09:12:39;;;;;;;1.40;0.50;;;18.90;44.60;;;;;;5078229;28;20199;-81
2022/02/21 09:15:07;;;;;;;2.72;0.88;;;19.00;44.80;;;;;;5061550;28;20209;-81
2022/02/21 09:17:34;;;;;;;1.92;0.80;;;19.00;45.50;;;;;;5061659;28;20181;-81
2022/02/21 09:20:02;;;;;;;0.90;0.68;;;19.00;45.40;;;;;;5044197;28;20220;-81
2022/02/21 09:22:32;;;;;;;4.10;1.00;;;18.90;45.50;;;;;;5062413;28;20181;-81
2022/02/21 09:24:57;;;;;;;3.72;0.80;;;18.80;45.50;;;;;;5045460;28;20188;-81
2022/02/21 09:27:23;;;;;;;2.22;0.68;;;18.90;45.60;;;;;;5062343;28;20535;-81
2022/02/21 09:29:49;;;;;;;2.38;0.70;;;18.80;45.50;;;;;;5077169;28;20255;-81
2022/02/21 09:32:15;;;;;;;1.80;1.05;;;18.80;45.80;;;;;;5079775;28;20161;-81
2022/02/21 09:34:42;;;;;;;2.20;0.80;;;18.90;45.60;;;;;;5045017;28;20292;-82
2022/02/21 09:37:07;;;;;;;1.52;0.50;;;19.00;45.10;;;;;;5061685;28;20162;-81
2022/02/21 09:39:33;;;;;;;7.28;0.95;;;19.00;45.20;;;;;;5078417;28;20162;-81
2022/02/21 09:41:59;;;;;;;4.35;0.80;;;19.00;45.00;;;;;;5077213;28;20164;-81
2022/02/21 09:44:25;;;;;;;5.50;0.73;;;19.10;45.10;;;;;;5060365;28;20158;-83
2022/02/21 09:46:50;;;;;;;3.88;0.60;;;19.10;44.90;;;;;;5059872;28;20157;-83
2022/02/21 09:49:16;;;;;;;7.05;0.90;;;19.10;45.00;;;;;;5042942;28;20169;-82
2022/02/21 09:51:42;;;;;;;6.90;1.02;;;19.00;45.40;;;;;;5043238;28;20181;-82
2022/02/21 09:54:13;;;;;;;4.97;0.68;;;19.00;45.10;;;;;;5042831;28;20164;-84
2022/02/21 09:56:42;;;;;;;6.20;1.08;;;19.10;45.00;;;;;;5060593;28;20227;-82
2022/02/21 09:59:11;;;;;;;2.55;0.70;;;19.00;45.10;;;;;;5060186;28;20195;-82
2022/02/21 10:01:39;;;;;;;0.95;0.50;;;19.10;45.10;;;;;;5041591;28;20181;-82
2022/02/21 10:04:10;;;;;;;2.60;1.00;;;19.20;45.00;;;;;;5059449;28;20181;-81
2022/02/21 10:06:37;;;;;;;2.17;0.77;;;19.10;45.00;;;;;;5045079;28;20305;-83
2022/02/21 10:09:08;;;;;;;2.17;0.60;;;19.10;45.20;;;;;;5044985;28;20181;-81
2022/02/21 10:11:42;;;;;;;3.60;0.82;;;19.10;45.20;;;;;;5068057;28;20189;-81
2022/02/21 10:14:12;;;;;;;1.60;0.60;;;19.10;46.10;;;;;;5070065;28;20177;-83
2022/02/21 10:16:57;;;;;;;2.13;0.47;;;19.10;45.20;;;;;;5064140;28;20189;-81
2022/02/21 10:19:38;;;;;;;1.40;0.70;;;19.10;45.30;;;;;;5047763;28;20186;-82
2022/02/21 10:22:10;;;;;;;2.13;0.77;;;19.10;45.50;;;;;;5060952;28;20185;-82
2022/02/21 10:24:48;;;;;;;1.15;0.60;;;19.10;45.50;;;;;;5026756;28;20308;-82
2022/02/21 10:27:21;;;;;;;3.78;0.73;;;19.10;45.30;;;;;;5060154;28;20214;-82
2022/02/21 10:30:16;;;;;;;;;;;;;;;;;;;;;
2022/02/21 10:32:44;;;;;;;0.98;0.70;;;19.10;45.50;;;;;;5030732;28;20257;-82
2022/02/21 10:35:21;;;;;;;0.80;0.47;;;19.00;45.50;;;;;;5043172;28;20215;-82
2022/02/21 10:37:48;;;;;;;1.55;0.70;;;19.10;45.20;;;;;;5060528;28;20173;-82
2022/02/21 10:40:17;;;;;;;3.70;0.80;;;19.00;45.20;;;;;;5077134;28;20149;-81
2022/02/21 10:42:44;;;;;;;2.08;1.00;;;19.00;45.20;;;;;;5060254;28;20153;-81
2022/02/21 10:45:16;;;;;;;0.75;0.55;;;19.10;45.10;;;;;;5074499;28;20210;-82
2022/02/21 10:48:02;;;;;;;2.67;0.60;;;19.10;45.20;;;;;;5056216;28;20173;-82
2022/02/21 10:50:28;;;;;;;1.52;0.77;;;19.10;45.20;;;;;;5037128;28;20182;-82
2022/02/21 10:52:57;;;;;;;1.65;0.60;;;19.00;45.30;;;;;;5039453;28;20239;-81
2022/02/21 10:55:34;;;;;;;1.73;0.70;;;19.10;45.40;;;;;;5020346;28;20318;-81
2022/02/21 10:58:18;;;;;;;1.02;0.70;;;19.10;45.30;;;;;;5054315;28;20188;-81
2022/02/21 11:00:50;;;;;;;1.58;0.55;;;19.00;45.40;;;;;;4993991;28;20181;-80
2022/02/21 11:03:21;;;;;;;1.20;0.70;;;19.00;45.40;;;;;;5037988;28;20265;-80
2022/02/21 11:05:50;;;;;;;2.30;0.90;;;19.00;45.30;;;;;;5021714;28;20217;-81
2022/02/21 11:08:16;;;;;;;1.23;0.70;;;19.00;45.30;;;;;;5037580;28;20477;-81
2022/02/21 11:10:48;;;;;;;1.80;0.80;;;19.00;45.20;;;;;;5054718;28;20245;-81
2022/02/21 11:13:16;;;;;;;1.30;0.60;;;19.00;45.10;;;;;;5022482;28;20178;-82
2022/02/21 11:15:44;;;;;;;2.35;0.90;;;19.00;45.10;;;;;;5033761;28;20228;-82
2022/02/21 11:18:14;;;;;;;2.05;0.50;;;19.10;45.00;;;;;;5038293;28;20190;-81
2022/02/21 11:20:42;;;;;;;0.93;0.50;;;19.10;44.90;;;;;;5020656;28;20585;-81
2022/02/21 11:23:07;;;;;;;1.63;0.47;;;19.10;44.90;;;;;;5037571;28;20637;-81
2022/02/21 11:25:47;;;;;;;1.02;0.50;;;19.10;44.70;;;;;;5055788;28;20198;-81
2022/02/21 11:28:30;;;;;;;1.13;0.52;;;19.10;44.80;;;;;;5037017;28;20543;-82
2022/02/21 11:31:00;;;;;;;2.47;0.50;;;19.10;44.60;;;;;;5053471;28;20253;-81
2022/02/21 11:33:28;;;;;;;0.90;0.32;;;19.10;44.60;;;;;;5020247;28;20202;-81
2022/02/21 11:36:10;;;;;;;1.92;0.50;;;19.10;44.60;;;;;;5036386;28;20676;-81
2022/02/21 11:38:41;;;;;;;0.63;0.40;;;19.10;44.70;;;;;;5036351;28;20645;-81
2022/02/21 11:41:10;;;;;;;1.30;0.50;;;19.10;44.70;;;;;;5037577;28;20190;-81
2022/02/21 11:43:39;;;;;;;0.90;0.50;;;19.10;44.70;;;;;;5036633;28;20185;-81
2022/02/21 11:46:12;;;;;;;1.60;0.50;;;19.10;44.70;;;;;;5020642;28;20189;-82
2022/02/21 11:48:57;;;;;;;1.58;0.50;;;19.10;44.70;;;;;;5036739;28;20618;-82
2022/02/21 11:51:40;;;;;;;1.63;0.50;;;19.10;44.60;;;;;;5053364;28;20525;-83
2022/02/21 11:54:43;;;;;;;2.22;0.60;;;19.10;44.50;;;;;;5036358;28;20255;-82
2022/02/21 11:57:11;;;;;;;0.45;0.45;;;19.10;44.40;;;;;;5054034;28;20509;-82
2022/02/21 11:59:38;;;;;;;1.33;0.75;;;19.20;44.20;;;;;;5019986;28;20228;-82
2022/02/21 12:02:13;;;;;;;0.85;0.40;;;19.20;44.30;;;;;;5036912;28;20182;-82
2022/02/21 12:04:56;;;;;;;1.23;0.50;;;19.20;44.30;;;;;;5037660;28;20228;-82
2022/02/21 12:07:32;;;;;;;1.25;0.50;;;19.20;44.30;;;;;;5039704;28;20177;-83
2022/02/21 12:10:22;;;;;;;1.80;0.40;;;19.10;44.40;;;;;;5036763;28;20636;-83
2022/02/21 12:13:10;;;;;;;2.13;0.65;;;19.10;44.40;;;;;;5038375;28;20667;-82
2022/02/21 12:15:37;;;;;;;0.52;0.45;;;19.10;44.40;;;;;;5040563;28;20193;-83
2022/02/21 12:18:37;;;;;;;0.40;0.40;;;19.10;44.50;;;;;;5036965;28;20189;-82
2022/02/21 12:21:09;;;;;;;0.73;0.50;;;19.00;44.60;;;;;;5060226;28;20158;-83
2022/02/21 12:23:36;;;;;;;1.55;0.50;;;19.00;44.70;;;;;;5058689;28;20683;-82
2022/02/21 12:26:22;;;;;;;1.02;0.68;;;19.00;44.70;;;;;;5038330;28;20245;-82
2022/02/21 12:29:15;;;;;;;0.50;0.50;;;19.00;44.60;;;;;;5058385;28;20174;-82
2022/02/21 12:31:43;;;;;;;1.67;0.50;;;19.10;44.50;;;;;;5058210;28;20248;-82
2022/02/21 12:34:10;;;;;;;0.68;0.57;;;19.10;44.40;;;;;;5057590;28;20532;-82
2022/02/21 12:36:38;;;;;;;0.40;0.38;;;19.10;44.30;;;;;;5056843;28;20245;-82
2022/02/21 12:39:05;;;;;;;0.60;0.43;;;19.10;44.30;;;;;;5041034;28;20532;-82
2022/02/21 12:41:33;;;;;;;1.65;0.40;;;19.10;44.30;;;;;;5073031;28;20219;-81
2022/02/21 12:44:04;;;;;;;0.60;0.50;;;19.20;44.30;;;;;;5056045;28;20196;-81
2022/02/21 12:46:33;;;;;;;2.90;0.40;;;19.20;44.30;;;;;;5006866;28;20731;-81
2022/02/21 12:49:00;;;;;;;0.50;0.40;;;19.20;44.20;;;;;;5040452;28;20176;-81
2022/02/21 12:51:28;;;;;;;1.15;0.50;;;19.20;44.10;;;;;;5055966;28;20300;-81
2022/02/21 12:54:03;;;;;;;0.75;0.30;;;19.20;44.10;;;;;;5056002;28;20152;-81